Time;durP1;ratioP1;P1;durP2;ratioP2;P2;SDS_P1;SDS_P2;PMS_P1;PMS_P2;Temp;Humidity;BMP_temperature;BMP_pressure;BME280_temperature;BME280_humidity;BME280_pressure;Samples;Min_cycle;Max_cycle;Signal;HPM_P1;HPM_P2
2022/06/06 00:00:35;;;;;;;;;;;12.80;99.90;;;;;;5091064;28;19912;-76
2022/06/06 00:03:01;;;;;;;;;;;12.80;99.90;;;;;;5087923;28;20315;-76
2022/06/06 00:05:26;;;;;;;;;;;12.80;99.90;;;;;;5073841;28;19915;-75
2022/06/06 00:07:53;;;;;;;;;;;12.70;99.90;;;;;;5076865;28;19991;-75
2022/06/06 00:10:18;;;;;;;;;;;12.80;99.90;;;;;;5071267;28;19908;-75
2022/06/06 00:12:44;;;;;;;;;;;12.80;99.90;;;;;;5070993;28;19913;-75
2022/06/06 00:15:09;;;;;;;;;;;12.70;99.90;;;;;;5070815;28;19909;-75
2022/06/06 00:17:36;;;;;;;;;;;12.60;99.90;;;;;;5071476;28;19919;-75
2022/06/06 00:20:02;;;;;;;;;;;12.60;99.90;;;;;;5070203;28;19909;-76
2022/06/06 00:22:27;;;;;;;;;;;12.60;99.90;;;;;;5070845;28;20258;-75
2022/06/06 00:24:54;;;;;;;;;;;12.50;99.90;;;;;;5070588;28;19909;-75
2022/06/06 00:27:19;;;;;;;;;;;12.60;99.90;;;;;;5071402;28;20007;-75
2022/06/06 00:29:45;;;;;;;;;;;12.50;99.90;;;;;;5071587;28;20397;-75
2022/06/06 00:34:54;;;;;;;;;;;12.40;99.90;;;;;;5084032;28;19931;-75
2022/06/06 00:37:25;;;;;;;;;;;12.40;99.90;;;;;;5070993;28;20366;-75
2022/06/06 00:39:50;;;;;;;;;;;12.30;99.90;;;;;;5071257;28;19909;-75
2022/06/06 00:42:18;;;;;;;;;;;12.50;99.90;;;;;;5070771;28;19915;-76
2022/06/06 00:44:44;;;;;;;;;;;12.40;99.90;;;;;;5070400;28;19908;-75
2022/06/06 00:47:27;;;;;;;;;;;12.30;99.90;;;;;;5071265;28;19915;-75
2022/06/06 00:49:54;;;;;;;;;;;12.40;99.90;;;;;;5084711;28;20339;-76
2022/06/06 00:52:23;;;;;;;;;;;12.50;99.90;;;;;;5089963;28;19912;-76
2022/06/06 00:54:50;;;;;;;;;;;12.50;99.90;;;;;;5089515;28;20359;-75
2022/06/06 00:57:18;;;;;;;;;;;12.50;99.90;;;;;;5090602;28;20381;-76
2022/06/06 00:59:44;;;;;;;;;;;12.40;99.90;;;;;;5090217;28;20303;-76
2022/06/06 01:02:11;;;;;;;;;;;12.30;99.90;;;;;;5075947;28;19924;-76
2022/06/06 01:04:36;;;;;;;;;;;12.50;99.90;;;;;;5078794;28;19916;-76
2022/06/06 01:07:03;;;;;;;;;;;12.50;99.90;;;;;;5081181;28;19954;-76
2022/06/06 01:09:29;;;;;;;;;;;12.40;99.90;;;;;;5071040;28;19952;-77
2022/06/06 01:11:59;;;;;;;;;;;12.30;99.90;;;;;;5070514;28;19952;-76
2022/06/06 01:14:28;;;;;;;;;;;12.30;99.90;;;;;;5070074;28;19915;-76
2022/06/06 01:17:00;;;;;;;;;;;12.40;99.90;;;;;;5070766;28;19916;-76
2022/06/06 01:19:34;;;;;;;;;;;12.50;99.90;;;;;;5072806;28;20270;-76
2022/06/06 01:22:03;;;;;;;;;;;12.50;99.90;;;;;;5074027;28;19916;-75
2022/06/06 01:24:55;;;;;;;;;;;12.30;99.90;;;;;;5073621;28;19908;-76
2022/06/06 01:27:29;;;;;;;;;;;12.20;99.90;;;;;;5072908;28;19916;-76
2022/06/06 01:29:58;;;;;;;;;;;12.20;99.90;;;;;;5087172;28;20388;-76
2022/06/06 01:32:24;;;;;;;;;;;12.30;99.90;;;;;;5073824;28;20191;-76
2022/06/06 01:34:52;;;;;;;;;;;12.40;99.90;;;;;;5092257;28;20011;-76
2022/06/06 01:37:29;;;;;;;;;;;12.40;99.90;;;;;;5087393;28;19908;-76
2022/06/06 01:39:56;;;;;;;;;;;12.20;99.90;;;;;;5093406;28;19969;-76
2022/06/06 01:42:21;;;;;;;;;;;12.10;99.90;;;;;;5092994;28;19991;-76
2022/06/06 01:44:50;;;;;;;;;;;12.10;99.90;;;;;;5091342;28;20224;-76
2022/06/06 01:47:20;;;;;;;;;;;12.20;99.90;;;;;;5093413;28;20357;-76
2022/06/06 01:49:45;;;;;;;;;;;12.10;99.90;;;;;;5093415;28;19912;-76
2022/06/06 01:52:12;;;;;;;;;;;12.00;99.90;;;;;;5092662;28;19912;-76
2022/06/06 01:54:38;;;;;;;;;;;11.90;99.90;;;;;;5092545;28;19908;-77
2022/06/06 01:57:05;;;;;;;;;;;11.80;99.90;;;;;;5093249;28;20006;-76
2022/06/06 01:59:30;;;;;;;;;;;11.90;99.90;;;;;;5091495;28;19912;-76
2022/06/06 02:01:56;;;;;;;;;;;11.80;99.90;;;;;;5092697;28;19915;-76
2022/06/06 02:04:21;;;;;;;;;;;11.90;99.90;;;;;;5083342;28;19909;-76
2022/06/06 02:06:47;;;;;;;;;;;11.90;99.90;;;;;;5090755;28;19908;-76
2022/06/06 02:09:13;;;;;;;;;;;11.90;99.90;;;;;;5085537;28;19908;-76
2022/06/06 02:11:39;;;;;;;;;;;11.90;99.90;;;;;;5086213;28;19965;-76
2022/06/06 02:14:04;;;;;;;;;;;11.90;99.90;;;;;;5079472;28;19920;-77
2022/06/06 02:16:30;;;;;;;;;;;11.90;99.90;;;;;;5092798;28;19908;-75
2022/06/06 02:18:56;;;;;;;;;;;11.80;99.90;;;;;;5073965;28;20423;-75
2022/06/06 02:21:21;;;;;;;;;;;11.70;99.90;;;;;;5079847;28;19916;-76
2022/06/06 02:23:48;;;;;;;;;;;11.70;99.90;;;;;;5092044;28;19919;-77
2022/06/06 02:26:14;;;;;;;;;;;11.70;99.90;;;;;;5080902;28;19904;-76
2022/06/06 02:28:40;;;;;;;;;;;11.70;99.90;;;;;;5073172;28;20358;-76
2022/06/06 02:31:06;;;;;;;;;;;11.60;99.90;;;;;;5077392;28;19913;-76
2022/06/06 02:33:32;;;;;;;;;;;11.50;99.90;;;;;;5078567;28;19908;-76
2022/06/06 02:36:00;;;;;;;;;;;11.50;99.90;;;;;;5090893;28;19908;-76
2022/06/06 02:38:26;;;;;;;;;;;11.50;99.90;;;;;;5079162;28;20295;-76
2022/06/06 02:40:52;;;;;;;;;;;11.50;99.90;;;;;;5092721;28;19908;-76
2022/06/06 02:43:18;;;;;;;;;;;11.60;99.90;;;;;;5091274;28;19915;-76
2022/06/06 02:45:46;;;;;;;;;;;11.50;99.90;;;;;;5085693;28;19911;-76
2022/06/06 02:48:12;;;;;;;;;;;11.60;99.90;;;;;;5073737;28;19915;-75
2022/06/06 02:50:38;;;;;;;;;;;11.60;99.90;;;;;;5076513;28;20007;-76
2022/06/06 02:53:05;;;;;;;;;;;11.60;99.90;;;;;;5078911;28;19908;-76
2022/06/06 02:55:31;;;;;;;;;;;11.50;99.90;;;;;;5092418;28;20289;-76
2022/06/06 02:57:57;;;;;;;;;;;11.50;99.90;;;;;;5082232;28;19908;-75
2022/06/06 03:00:26;;;;;;;;;;;11.50;99.90;;;;;;5075600;28;19908;-76
2022/06/06 03:02:52;;;;;;;;;;;11.50;99.90;;;;;;5085297;28;19908;-77
2022/06/06 03:05:18;;;;;;;;;;;11.50;99.90;;;;;;5081563;28;20323;-76
2022/06/06 03:08:05;;;;;;;;;;;11.60;99.90;;;;;;5084542;28;20386;-75
2022/06/06 03:10:49;;;;;;;;;;;11.60;99.90;;;;;;5072355;28;19912;-75
2022/06/06 03:13:38;;;;;;;;;;;11.50;99.90;;;;;;5077865;28;19919;-76
2022/06/06 03:22:09;;;;;;;;;;;11.50;99.90;;;;;;5090199;28;19923;-76
2022/06/06 03:24:34;;;;;;;;;;;11.50;99.90;;;;;;5071287;28;19954;-76
2022/06/06 03:27:23;;;;;;;;;;;11.60;99.90;;;;;;5078616;28;19908;-75
2022/06/06 03:29:51;;;;;;;;;;;11.50;99.90;;;;;;5074582;28;19930;-76
2022/06/06 03:32:25;;;;;;;;;;;11.50;99.90;;;;;;5074796;28;19974;-75
2022/06/06 03:35:08;;;;;;;;;;;11.60;99.90;;;;;;5088384;28;20007;-76
2022/06/06 03:37:42;;;;;;;;;;;11.60;99.90;;;;;;5091742;28;19915;-75
2022/06/06 03:40:26;;;;;;;;;;;11.70;99.90;;;;;;5084775;28;19954;-76
2022/06/06 03:43:00;;;;;;;;;;;11.70;99.90;;;;;;5084697;28;19908;-76
2022/06/06 03:45:28;;;;;;;;;;;11.60;99.90;;;;;;5070760;28;19913;-75
2022/06/06 03:48:03;;;;;;;;;;;11.50;99.90;;;;;;5075625;28;20265;-76
2022/06/06 03:50:42;;;;;;;;;;;11.60;99.90;;;;;;5088349;28;19915;-76
2022/06/06 03:53:15;;;;;;;;;;;11.50;99.90;;;;;;5088238;28;19916;-75
2022/06/06 03:56:00;;;;;;;;;;;11.50;99.90;;;;;;5073918;28;19909;-77
2022/06/06 03:58:28;;;;;;;;;;;11.50;99.90;;;;;;5087816;28;19915;-75
2022/06/06 04:00:55;;;;;;;;;;;11.60;99.90;;;;;;5088316;28;19912;-76
2022/06/06 04:03:21;;;;;;;;;;;11.60;99.90;;;;;;5077135;28;19979;-76
2022/06/06 04:05:47;;;;;;;;;;;11.70;99.90;;;;;;5077913;28;19940;-76
2022/06/06 04:08:13;;;;;;;;;;;11.80;99.90;;;;;;5073853;28;19915;-76
2022/06/06 04:10:49;;;;;;;;;;;11.80;99.90;;;;;;5087769;28;19908;-75
2022/06/06 04:13:24;;;;;;;;;;;11.80;99.90;;;;;;5087046;28;19951;-76
2022/06/06 04:15:50;;;;;;;;;;;11.90;99.90;;;;;;5084413;28;19937;-76
2022/06/06 04:18:18;;;;;;;;;;;11.90;99.90;;;;;;5087187;28;19908;-77
2022/06/06 04:20:44;;;;;;;;;;;12.10;99.90;;;;;;5087887;28;19911;-76
2022/06/06 04:23:12;;;;;;;;;;;12.10;99.90;;;;;;5098188;28;20436;-75
2022/06/06 04:25:38;;;;;;;;;;;12.30;99.90;;;;;;5091388;28;19908;-76
2022/06/06 04:28:17;;;;;;;;;;;12.20;99.90;;;;;;5077651;28;19969;-76
2022/06/06 04:30:45;;;;;;;;;;;12.30;99.90;;;;;;5084129;28;20361;-76
2022/06/06 04:33:18;;;;;;;;;;;12.30;99.90;;;;;;5070898;28;20344;-76
2022/06/06 04:35:48;;;;;;;;;;;12.40;99.90;;;;;;5084296;28;19908;-77
2022/06/06 04:38:20;;;;;;;;;;;12.50;99.90;;;;;;5084380;28;20345;-78
2022/06/06 04:40:45;;;;;;;;;;;12.50;99.90;;;;;;5085273;28;19951;-76
2022/06/06 04:43:20;;;;;;;;;;;12.70;99.90;;;;;;5081494;28;19951;-76
2022/06/06 04:45:48;;;;;;;;;;;12.80;99.90;;;;;;5085335;28;19962;-76
2022/06/06 04:48:15;;;;;;;;;;;13.00;99.90;;;;;;5090471;28;19915;-76
2022/06/06 04:50:42;;;;;;;;;;;13.10;99.90;;;;;;5081037;28;21793;-76
2022/06/06 04:53:09;;;;;;;;;;;13.10;99.90;;;;;;5082951;28;20515;-76
2022/06/06 04:55:37;;;;;;;;;;;13.20;99.90;;;;;;5074514;28;20281;-76
2022/06/06 04:58:03;;;;;;;;;;;13.40;99.90;;;;;;5074770;28;19973;-77
2022/06/06 05:00:33;;;;;;;;;;;13.60;99.90;;;;;;5074680;28;19954;-76
2022/06/06 05:02:58;;;;;;;;;;;13.90;99.90;;;;;;5072832;28;20003;-78
2022/06/06 05:05:28;;;;;;;;;;;14.00;99.90;;;;;;5074046;28;19951;-76
2022/06/06 05:08:26;;;;;;;;;;;14.20;99.90;;;;;;5074728;28;19908;-76
2022/06/06 05:11:07;;;;;;;;;;;14.30;99.90;;;;;;5050566;28;19960;-76
2022/06/06 05:13:51;;;;;;;;;;;14.40;99.90;;;;;;5087472;28;19954;-77
2022/06/06 05:16:19;;;;;;;;;;;14.40;99.90;;;;;;5093705;28;19908;-76
2022/06/06 05:18:56;;;;;;;;;;;14.50;99.90;;;;;;5093619;28;19961;-78
2022/06/06 05:21:33;;;;;;;;;;;14.60;99.90;;;;;;5081862;28;19916;-77
2022/06/06 05:24:20;;;;;;;;;;;14.60;99.90;;;;;;5091990;28;20354;-76
2022/06/06 05:26:52;;;;;;;;;;;14.60;99.90;;;;;;5089217;28;20261;-76
2022/06/06 05:29:39;;;;;;;;;;;14.70;99.90;;;;;;5076887;28;19915;-76
2022/06/06 05:32:26;;;;;;;;;;;14.70;99.90;;;;;;5073566;28;19912;-76
2022/06/06 05:34:56;;;;;;;;;;;14.70;99.90;;;;;;5087682;28;19980;-76
2022/06/06 05:37:34;;;;;;;;;;;14.80;99.90;;;;;;5093185;28;20007;-76
2022/06/06 05:40:04;;;;;;;;;;;15.00;99.90;;;;;;5092175;28;20372;-77
2022/06/06 05:42:49;;;;;;;;;;;15.30;99.90;;;;;;5093072;28;19916;-76
2022/06/06 05:45:33;;;;;;;;;;;15.50;99.90;;;;;;5079074;28;19966;-77
2022/06/06 05:48:19;;;;;;;;;;;16.10;99.90;;;;;;5088039;28;20002;-76
2022/06/06 05:51:00;;;;;;;;;;;17.10;99.90;;;;;;5077756;28;19913;-77
2022/06/06 05:53:44;;;;;;;;;;;17.40;99.90;;;;;;5073821;28;19977;-78
2022/06/06 05:56:28;;;;;;;;;;;16.80;99.90;;;;;;5087855;28;19943;-77
2022/06/06 05:58:57;;;;;;;;;;;17.20;99.90;;;;;;5093130;28;19958;-77
2022/06/06 06:01:22;;;;;;;;;;;18.30;99.90;;;;;;5092322;28;19915;-77
2022/06/06 06:04:00;;;;;;;;;;;19.40;99.90;;;;;;5092313;28;19909;-76
2022/06/06 06:06:44;;;;;;;;;;;18.70;99.90;;;;;;5092957;28;19934;-76
2022/06/06 06:09:18;;;;;;;;;;;17.90;99.90;;;;;;5092944;28;19908;-76
2022/06/06 06:11:46;;;;;;;;;;;17.20;99.90;;;;;;5092406;28;19912;-77
2022/06/06 06:14:30;;;;;;;;;;;17.00;99.90;;;;;;5092231;28;19933;-76
2022/06/06 06:16:58;;;;;;;;;;;17.30;99.90;;;;;;5084704;28;19916;-77
2022/06/06 06:19:31;;;;;;;;;;;17.60;99.90;;;;;;5092709;28;19909;-77
2022/06/06 06:21:57;;;;;;;;;;;17.70;99.90;;;;;;5084281;28;19916;-77
2022/06/06 06:24:26;;;;;;;;;;;17.70;99.90;;;;;;5079814;28;19908;-77
2022/06/06 06:26:52;;;;;;;;;;;18.10;99.90;;;;;;5071867;28;19908;-77
2022/06/06 06:29:17;;;;;;;;;;;18.20;99.90;;;;;;5073103;28;20007;-77
2022/06/06 06:32:01;;;;;;;;;;;17.80;99.90;;;;;;5071799;28;19913;-79
2022/06/06 06:34:36;;;;;;;;;;;17.40;99.90;;;;;;5091901;28;19915;-77
2022/06/06 06:37:14;;;;;;;;;;;17.20;99.90;;;;;;5092382;28;19914;-77
2022/06/06 06:39:58;;;;;;;;;;;17.90;99.90;;;;;;5092640;28;20358;-76
2022/06/06 06:42:33;;;;;;;;;;;18.20;99.90;;;;;;5090455;28;19908;-77
2022/06/06 06:44:59;;;;;;;;;;;18.40;99.90;;;;;;5091610;28;19919;-78
2022/06/06 06:47:33;;;;;;;;;;;18.20;99.90;;;;;;5091874;28;19908;-76
2022/06/06 06:50:01;;;;;;;;;;;18.10;99.90;;;;;;5090297;28;20448;-76
2022/06/06 06:52:27;;;;;;;;;;;18.20;99.90;;;;;;5073616;28;19913;-78
2022/06/06 06:54:55;;;;;;;;;;;18.70;99.90;;;;;;5077343;28;20255;-77
2022/06/06 06:57:39;;;;;;;;;;;19.00;99.90;;;;;;5072662;28;19909;-76
2022/06/06 07:00:10;;;;;;;;;;;19.40;99.90;;;;;;5087190;28;20124;-77
2022/06/06 07:08:32;;;;;;;;;;;19.80;99.90;;;;;;5091855;28;19961;-77
2022/06/06 07:11:12;;;;;;;;;;;19.30;99.90;;;;;;5090327;28;19958;-77
2022/06/06 07:13:44;;;;;;;;;;;19.50;99.90;;;;;;5078539;28;19979;-77
2022/06/06 07:16:09;;;;;;;;;;;19.90;99.90;;;;;;5071790;28;19954;-79
2022/06/06 07:18:36;;;;;;;;;;;19.30;99.90;;;;;;5083092;28;19916;-76
2022/06/06 07:21:03;;;;;;;;;;;19.60;99.90;;;;;;5087328;28;20433;-77
2022/06/06 07:23:31;;;;;;;;;;;19.70;99.90;;;;;;5077031;28;19916;-77
2022/06/06 07:25:59;;;;;;;;;;;19.90;99.90;;;;;;5072089;28;19920;-77
2022/06/06 07:28:24;;;;;;;;;;;20.30;99.90;;;;;;5089661;28;20393;-77
2022/06/06 07:31:09;;;;;;;;;;;20.00;99.90;;;;;;5090873;28;19916;-79
2022/06/06 07:33:59;;;;;;;;;;;20.40;99.90;;;;;;5078842;28;19958;-77
2022/06/06 07:36:33;;;;;;;;;;;20.30;99.90;;;;;;5091643;28;20006;-77
2022/06/06 07:38:59;;;;;;;;;;;20.30;99.90;;;;;;5091255;28;19908;-77
2022/06/06 07:41:36;;;;;;;;;;;21.10;99.90;;;;;;5072708;28;19931;-78
2022/06/06 07:44:02;;;;;;;;;;;21.80;99.90;;;;;;5084151;28;19931;-78
2022/06/06 07:46:38;;;;;;;;;;;22.50;99.90;;;;;;5090648;28;20369;-77
2022/06/06 07:49:33;;;;;;;;;;;22.50;99.90;;;;;;5091264;28;19908;-77
2022/06/06 07:52:17;;;;;;;;;;;22.20;99.90;;;;;;5075593;28;20338;-79
2022/06/06 07:54:43;;;;;;;;;;;22.60;99.90;;;;;;5074663;28;20376;-78
2022/06/06 07:57:08;;;;;;;;;;;23.00;99.90;;;;;;5071688;28;19909;-77
2022/06/06 07:59:33;;;;;;;;;;;22.90;99.90;;;;;;5071709;28;19908;-77
2022/06/06 08:02:19;;;;;;;;;;;22.40;99.90;;;;;;5071020;28;19908;-78
2022/06/06 08:04:52;;;;;;;;;;;21.50;99.90;;;;;;5085022;28;19915;-78
2022/06/06 08:07:18;;;;;;;;;;;21.00;99.90;;;;;;5090942;28;19993;-77
2022/06/06 08:09:46;;;;;;;;;;;20.70;99.90;;;;;;5091072;28;19985;-78
2022/06/06 08:12:32;;;;;;;;;;;20.70;99.90;;;;;;5090407;28;19916;-76
2022/06/06 08:14:58;;;;;;;;;;;20.20;99.90;;;;;;5089717;28;20361;-78
2022/06/06 08:17:31;;;;;;;;;;;20.10;99.90;;;;;;5090221;28;19908;-78
2022/06/06 08:20:11;;;;;;;;;;;19.60;99.90;;;;;;5087221;28;19915;-77
2022/06/06 08:22:42;;;;;;;;;;;19.80;99.90;;;;;;5071912;28;19994;-79
2022/06/06 08:25:08;;;;;;;;;;;19.90;99.90;;;;;;5070311;28;19923;-78
2022/06/06 08:27:35;;;;;;;;;;;20.00;99.90;;;;;;5070903;28;19990;-78
2022/06/06 08:30:00;;;;;;;;;;;20.20;99.90;;;;;;5073179;28;19913;-77
2022/06/06 08:32:27;;;;;;;;;;;21.00;99.90;;;;;;5073956;28;20266;-77
2022/06/06 08:34:54;;;;;;;;;;;22.60;99.90;;;;;;5074547;28;19909;-77
2022/06/06 08:37:22;;;;;;;;;;;22.00;99.90;;;;;;5075514;28;19915;-78
2022/06/06 08:40:17;;;;;;;;;;;21.50;99.90;;;;;;5075396;28;19908;-79
2022/06/06 08:42:52;;;;;;;;;;;21.10;99.90;;;;;;5034521;28;19947;-78
2022/06/06 08:45:35;;;;;;;;;;;21.30;99.90;;;;;;5073455;28;19930;-77
2022/06/06 08:48:07;;;;;;;;;;;21.10;99.90;;;;;;5088805;28;19950;-77
2022/06/06 08:50:53;;;;;;;;;;;20.80;99.90;;;;;;5092022;28;20373;-77
2022/06/06 08:53:38;;;;;;;;;;;20.70;99.90;;;;;;5080649;28;19990;-77
2022/06/06 08:56:03;;;;;;;;;;;20.60;99.90;;;;;;5075150;28;19919;-77
2022/06/06 08:58:47;;;;;;;;;;;20.60;99.90;;;;;;5075008;28;20365;-77
2022/06/06 09:01:28;;;;;;;;;;;21.70;99.90;;;;;;5088951;28;19908;-77
2022/06/06 09:03:56;;;;;;;;;;;24.30;97.90;;;;;;5093672;28;19908;-77
2022/06/06 09:06:22;;;;;;;;;;;25.30;95.60;;;;;;5094468;28;19961;-77
2022/06/06 09:08:53;;;;;;;;;;;25.40;95.00;;;;;;5093325;28;19912;-77
2022/06/06 09:11:21;;;;;;;;;;;24.70;95.80;;;;;;5093789;28;19920;-78
2022/06/06 09:14:22;;;;;;;;;;;23.30;95.10;;;;;;5093573;28;19908;-78
2022/06/06 09:17:06;;;;;;;;;;;22.50;95.00;;;;;;5031719;28;20421;-77
2022/06/06 09:19:38;;;;;;;;;;;22.40;95.00;;;;;;5074785;28;19912;-78
2022/06/06 09:22:10;;;;;;;;;;;22.40;96.80;;;;;;5077197;28;19974;-77
2022/06/06 09:24:38;;;;;;;;;;;22.30;95.90;;;;;;5078080;28;20388;-77
2022/06/06 09:27:42;;;;;;;;;;;22.40;94.90;;;;;;5073213;28;19909;-77
2022/06/06 09:30:26;;;;;;;;;;;22.50;95.50;;;;;;5010630;28;19909;-78
2022/06/06 09:32:52;;;;;;;;;;;22.30;96.50;;;;;;5029596;28;19962;-78
2022/06/06 09:35:20;;;;;;;;;;;22.80;95.20;;;;;;5066504;28;20333;-79
2022/06/06 09:37:48;;;;;;;;;;;23.80;95.40;;;;;;5092588;28;19959;-78
2022/06/06 09:40:34;;;;;;;;;;;24.70;95.90;;;;;;5090864;28;19977;-78
2022/06/06 09:43:08;;;;;;;;;;;24.80;92.30;;;;;;5091862;28;19908;-77
2022/06/06 09:45:44;;;;;;;;;;;25.10;92.80;;;;;;5077018;28;19909;-78
2022/06/06 09:48:22;;;;;;;;;;;24.50;91.60;;;;;;5072763;28;19909;-78
2022/06/06 09:51:26;;;;;;;;;;;24.00;91.30;;;;;;5078043;28;19909;-78
2022/06/06 09:59:26;;;;;;;;;;;22.60;93.60;;;;;;5061068;28;19954;-77
2022/06/06 10:02:10;;;;;;;;;;;22.40;93.60;;;;;;5072028;28;19995;-78
2022/06/06 10:04:51;;;;;;;;;;;22.40;94.00;;;;;;5070783;28;19917;-78
2022/06/06 10:07:35;;;;;;;;;;;22.60;94.90;;;;;;5072858;28;19916;-77
2022/06/06 10:10:06;;;;;;;;;;;22.90;95.20;;;;;;5087189;28;19908;-78
2022/06/06 10:12:46;;;;;;;;;;;24.50;92.20;;;;;;5091433;28;20365;-78
2022/06/06 10:15:29;;;;;;;;;;;25.00;93.50;;;;;;5091412;28;20285;-78
2022/06/06 10:18:07;;;;;;;;;;;23.80;92.10;;;;;;5090549;28;20383;-78
2022/06/06 10:20:32;;;;;;;;;;;22.80;93.60;;;;;;5089932;28;20053;-78
2022/06/06 10:23:13;;;;;;;;;;;22.80;94.40;;;;;;5007028;28;2114457;-78
2022/06/06 10:25:56;;;;;;;;;;;23.70;95.00;;;;;;5073324;28;19923;-78
2022/06/06 10:28:40;;;;;;;;;;;24.60;93.90;;;;;;5073466;28;19908;-78
2022/06/06 10:31:05;;;;;;;;;;;26.30;90.60;;;;;;5070884;28;19920;-78
2022/06/06 10:33:50;;;;;;;;;;;27.50;87.00;;;;;;5072491;28;19915;-78
2022/06/06 10:36:19;;;;;;;;;;;26.70;87.70;;;;;;5088171;28;19912;-78
2022/06/06 10:39:04;;;;;;;;;;;26.80;83.10;;;;;;5092799;28;19930;-81
2022/06/06 10:41:42;;;;;;;;;;;26.70;91.10;;;;;;5060594;28;20002;-77
2022/06/06 10:44:23;;;;;;;;;;;26.80;86.80;;;;;;5091888;28;19908;-78
2022/06/06 10:47:06;;;;;;;;;;;26.80;83.40;;;;;;5092221;28;19916;-80
2022/06/06 10:49:31;;;;;;;;;;;26.80;84.00;;;;;;5088309;28;19908;-78
2022/06/06 10:52:27;;;;;;;;;;;25.40;84.10;;;;;;5076577;28;20030;-78
2022/06/06 10:55:08;;;;;;;;;;;26.30;90.70;;;;;;5070649;28;20281;-79
2022/06/06 10:57:53;;;;;;;;;;;26.30;83.00;;;;;;5073146;28;19915;-78
2022/06/06 11:00:29;;;;;;;;;;;26.10;83.60;;;;;;5083578;28;20033;-77
2022/06/06 11:03:12;;;;;;;;;;;26.30;85.10;;;;;;5091425;28;19908;-77
2022/06/06 11:05:49;;;;;;;;;;;26.40;81.60;;;;;;5091013;28;20002;-79
2022/06/06 11:08:15;;;;;;;;;;;27.20;85.00;;;;;;5072582;28;20370;-80
2022/06/06 11:10:46;;;;;;;;;;;26.80;81.60;;;;;;5073105;28;19909;-78
2022/06/06 11:13:30;;;;;;;;;;;25.50;81.70;;;;;;5075156;28;19938;-78
2022/06/06 11:15:56;;;;;;;;;;;24.10;85.70;;;;;;5072283;28;20284;-78
2022/06/06 11:18:30;;;;;;;;;;;24.20;85.20;;;;;;5078686;28;19908;-78
2022/06/06 11:21:02;;;;;;;;;;;24.00;85.30;;;;;;5078599;28;19912;-78
2022/06/06 11:23:48;;;;;;;;;;;24.00;86.20;;;;;;5071172;28;20259;-79
2022/06/06 11:26:16;;;;;;;;;;;24.10;90.10;;;;;;5086936;28;20145;-78
2022/06/06 11:28:58;;;;;;;;;;;23.80;90.30;;;;;;5091553;28;19915;-78
2022/06/06 11:31:41;;;;;;;;;;;23.30;85.00;;;;;;5089795;28;19912;-79
2022/06/06 11:34:26;;;;;;;;;;;22.40;90.50;;;;;;5091137;28;19910;-79
2022/06/06 11:37:10;;;;;;;;;;;22.10;89.30;;;;;;5091433;28;19908;-79
2022/06/06 11:39:54;;;;;;;;;;;21.90;90.20;;;;;;5090972;28;19934;-79
2022/06/06 11:42:24;;;;;;;;;;;21.90;90.80;;;;;;5082950;28;19915;-78
2022/06/06 11:44:52;;;;;;;;;;;21.70;91.00;;;;;;5084549;28;19912;-78
2022/06/06 11:47:24;;;;;;;;;;;21.40;91.60;;;;;;5090907;28;20277;-80
2022/06/06 11:50:00;;;;;;;;;;;21.10;90.20;;;;;;5089347;28;19941;-78
2022/06/06 11:52:38;;;;;;;;;;;20.80;91.40;;;;;;5091865;28;19916;-77
2022/06/06 11:55:18;;;;;;;;;;;20.80;92.20;;;;;;5089829;28;20373;-77
2022/06/06 11:58:02;;;;;;;;;;;20.80;90.10;;;;;;5090865;28;19908;-78
2022/06/06 12:00:45;;;;;;;;;;;21.00;91.10;;;;;;5090974;28;19914;-78
2022/06/06 12:03:17;;;;;;;;;;;21.50;91.10;;;;;;5088293;28;19908;-77
2022/06/06 12:06:01;;;;;;;;;;;21.70;90.20;;;;;;5091008;28;19915;-78
2022/06/06 12:08:35;;;;;;;;;;;21.90;91.50;;;;;;5071709;28;19908;-78
2022/06/06 12:11:10;;;;;;;;;;;22.20;91.10;;;;;;5084178;28;20379;-78
2022/06/06 12:13:54;;;;;;;;;;;22.70;90.70;;;;;;5089883;28;20442;-78
2022/06/06 12:16:39;;;;;;;;;;;22.80;91.20;;;;;;5090767;28;19908;-79
2022/06/06 12:19:10;;;;;;;;;;;22.70;89.10;;;;;;5090862;28;19959;-78
2022/06/06 12:21:55;;;;;;;;;;;22.50;90.40;;;;;;5074945;28;20061;-78
2022/06/06 12:24:35;;;;;;;;;;;21.90;90.20;;;;;;5077029;28;20296;-78
2022/06/06 12:27:04;;;;;;;;;;;21.90;91.60;;;;;;5071229;28;19967;-80
2022/06/06 12:29:42;;;;;;;;;;;22.10;92.90;;;;;;5071054;28;19915;-76
2022/06/06 12:32:26;;;;;;;;;;;23.60;90.10;;;;;;5082350;28;19912;-78
2022/06/06 12:34:54;;;;;;;;;;;26.20;83.90;;;;;;5090107;28;19908;-79
2022/06/06 12:37:19;;;;;;;;;;;29.20;74.50;;;;;;5090573;28;19947;-79
2022/06/06 12:39:52;;;;;;;;;;;30.40;68.70;;;;;;5090515;28;19951;-77
2022/06/06 12:42:20;;;;;;;;;;;31.80;67.70;;;;;;5081087;28;19915;-78
2022/06/06 12:45:09;;;;;;;;;;;29.60;69.00;;;;;;5070378;28;19909;-79
2022/06/06 12:47:40;;;;;;;;;;;26.50;77.40;;;;;;5062912;28;19912;-77
2022/06/06 12:50:25;;;;;;;;;;;24.20;81.60;;;;;;5076083;28;19975;-78
2022/06/06 12:52:50;;;;;;;;;;;23.60;83.50;;;;;;5076020;28;19917;-77
2022/06/06 12:57:51;;;;;;;;;;;25.60;84.40;;;;;;5071387;28;19955;-79
2022/06/06 13:00:20;;;;;;;;;;;28.00;76.60;;;;;;5071051;28;19912;-78
2022/06/06 13:03:02;;;;;;;;;;;31.20;72.00;;;;;;5070294;28;19919;-79
2022/06/06 13:05:27;;;;;;;;;;;27.60;70.70;;;;;;5070483;28;19908;-77
2022/06/06 13:08:02;;;;;;;;;;;25.10;76.30;;;;;;5074293;28;19931;-77
2022/06/06 13:10:34;;;;;;;;;;;24.30;79.70;;;;;;5073070;28;19959;-78
2022/06/06 13:13:18;;;;;;;;;;;23.70;80.20;;;;;;5070519;28;19919;-78
2022/06/06 13:16:09;;;;;;;;;;;23.50;80.60;;;;;;5086054;28;19908;-77
2022/06/06 13:18:53;;;;;;;;;;;23.40;85.30;;;;;;5093978;28;20353;-78
2022/06/06 13:21:21;;;;;;;;;;;23.50;87.00;;;;;;5084337;28;19916;-79
2022/06/06 13:24:06;;;;;;;;;;;23.00;83.80;;;;;;5081668;28;19915;-77
2022/06/06 13:26:48;;;;;;;;;;;22.70;84.30;;;;;;5089123;28;19908;-77
2022/06/06 13:29:33;;;;;;;;;;;22.40;84.10;;;;;;5093905;28;19908;-77
2022/06/06 13:32:17;;;;;;;;;;;22.30;85.30;;;;;;5093074;28;19913;-80
2022/06/06 13:34:54;;;;;;;;;;;22.00;83.70;;;;;;5093049;28;20384;-78
2022/06/06 13:37:28;;;;;;;;;;;21.30;85.60;;;;;;5093836;28;20277;-77
2022/06/06 13:39:54;;;;;;;;;;;21.20;85.70;;;;;;5093658;28;19909;-77
2022/06/06 13:42:26;;;;;;;;;;;21.10;88.80;;;;;;5091878;28;19908;-77
2022/06/06 13:44:58;;;;;;;;;;;20.80;86.50;;;;;;5091432;28;19909;-77
2022/06/06 13:47:26;;;;;;;;;;;21.00;90.00;;;;;;5093414;28;19909;-77
2022/06/06 13:50:08;;;;;;;;;;;20.80;88.00;;;;;;5091679;28;20050;-77
2022/06/06 13:52:36;;;;;;;;;;;20.60;90.00;;;;;;5075098;28;19912;-77
2022/06/06 13:55:20;;;;;;;;;;;20.60;88.10;;;;;;5078803;28;19908;-77
2022/06/06 13:58:12;;;;;;;;;;;20.80;87.80;;;;;;5073974;28;20035;-77
2022/06/06 14:00:48;;;;;;;;;;;21.10;86.40;;;;;;5073899;28;19915;-77
2022/06/06 14:03:16;;;;;;;;;;;21.30;89.60;;;;;;5086020;28;19915;-78
2022/06/06 14:05:42;;;;;;;;;;;21.80;90.10;;;;;;5092764;28;19912;-79
2022/06/06 14:08:12;;;;;;;;;;;21.90;88.80;;;;;;5093105;28;19908;-78
2022/06/06 14:10:51;;;;;;;;;;;21.80;86.50;;;;;;5093036;28;19995;-77
2022/06/06 14:13:36;;;;;;;;;;;23.30;85.60;;;;;;5092361;28;20353;-78
2022/06/06 14:16:01;;;;;;;;;;;26.40;79.20;;;;;;5092740;28;19908;-77
2022/06/06 14:18:32;;;;;;;;;;;23.90;81.40;;;;;;5091241;28;19908;-78
2022/06/06 14:21:00;;;;;;;;;;;26.80;80.30;;;;;;5091110;28;19909;-79
2022/06/06 14:23:33;;;;;;;;;;;27.70;75.00;;;;;;5077635;28;19912;-79
2022/06/06 14:26:00;;;;;;;;;;;26.10;83.60;;;;;;5072759;28;20415;-78
2022/06/06 14:28:30;;;;;;;;;;;27.20;79.20;;;;;;5072520;28;20042;-79
2022/06/06 14:30:56;;;;;;;;;;;30.60;67.90;;;;;;5073366;28;19934;-77
2022/06/06 14:33:22;;;;;;;;;;;27.10;74.90;;;;;;5072070;28;20323;-77
2022/06/06 14:35:47;;;;;;;;;;;27.80;72.00;;;;;;5073981;28;20285;-78
2022/06/06 14:38:16;;;;;;;;;;;30.20;71.40;;;;;;5073051;28;20000;-77
2022/06/06 14:40:47;;;;;;;;;;;30.00;66.80;;;;;;5073097;28;19909;-77
2022/06/06 14:43:13;;;;;;;;;;;28.10;73.40;;;;;;5070672;28;19913;-78
2022/06/06 14:45:40;;;;;;;;;;;26.10;75.50;;;;;;5091982;28;19908;-78
2022/06/06 14:48:08;;;;;;;;;;;24.50;81.10;;;;;;5090663;28;20453;-78
2022/06/06 14:50:45;;;;;;;;;;;23.50;84.50;;;;;;5084090;28;19923;-77
2022/06/06 14:53:20;;;;;;;;;;;22.50;84.10;;;;;;5080395;28;19934;-76
2022/06/06 14:55:46;;;;;;;;;;;22.10;85.30;;;;;;5072505;28;19912;-77
2022/06/06 14:58:13;;;;;;;;;;;22.30;83.60;;;;;;5077701;28;20007;-78
2022/06/06 15:00:55;;;;;;;;;;;22.00;82.90;;;;;;5092052;28;19994;-78
2022/06/06 15:03:32;;;;;;;;;;;22.20;84.40;;;;;;5090697;28;19931;-78
2022/06/06 15:06:20;;;;;;;;;;;23.40;81.50;;;;;;5091807;28;19908;-78
2022/06/06 15:09:05;;;;;;;;;;;23.90;79.30;;;;;;5083449;28;19912;-77
2022/06/06 15:11:31;;;;;;;;;;;24.20;80.80;;;;;;5089953;28;19919;-78
2022/06/06 15:13:59;;;;;;;;;;;23.50;80.40;;;;;;5091170;28;20254;-78